createdAt,value
2019-05-07T00:00:46.738Z,81.01
2019-05-07T00:03:16.314Z,80.94
2019-05-07T00:05:45.852Z,81.13
2019-05-07T00:08:15.347Z,81.33
2019-05-07T00:10:44.802Z,81.43
2019-05-07T00:13:14.372Z,81.43
2019-05-07T00:15:43.871Z,81.33
2019-05-07T00:18:13.332Z,81.46
2019-05-07T00:20:42.791Z,81.55
2019-05-07T00:23:12.499Z,81.02
2019-05-07T00:25:42.387Z,81.02
2019-05-07T00:28:12.340Z,80.86
2019-05-07T00:30:42.642Z,80.91
2019-05-07T00:33:13.167Z,80.99
2019-05-07T00:35:44.448Z,80.84
2019-05-07T00:38:15.581Z,80.89
2019-05-07T00:41:02.891Z,80.79
2019-05-07T00:43:34.118Z,80.54
2019-05-07T00:46:05.571Z,80.58
2019-05-07T00:48:35.059Z,80.65
2019-05-07T00:51:22.737Z,80.87
2019-05-07T00:53:52.459Z,81.24
2019-05-07T00:56:22.421Z,81.38
2019-05-07T00:58:52.702Z,81.52
2019-05-07T01:01:23.403Z,81.76
2019-05-07T01:03:53.588Z,81.77
2019-05-07T01:06:26.345Z,81.58
2019-05-07T01:08:55.657Z,81.60
2019-05-07T01:11:25.522Z,81.55
2019-05-07T01:13:55.011Z,81.62
2019-05-07T01:16:24.493Z,81.88
2019-05-07T01:18:53.950Z,82.00
2019-05-07T01:21:23.811Z,82.14
2019-05-07T01:23:53.376Z,82.25
2019-05-07T01:26:22.837Z,82.23
2019-05-07T01:29:02.831Z,82.31
2019-05-07T01:31:35.909Z,82.51
2019-05-07T01:34:13.061Z,82.69
2019-05-07T01:36:42.908Z,82.66
2019-05-07T01:39:13.098Z,82.80
2019-05-07T01:41:43.370Z,82.89
2019-05-07T01:44:12.947Z,83.01
2019-05-07T01:46:43.371Z,83.15
2019-05-07T01:49:13.929Z,83.29
2019-05-07T01:51:44.452Z,83.31
2019-05-07T01:54:13.955Z,83.40
2019-05-07T01:56:43.776Z,83.46
2019-05-07T01:59:13.232Z,83.56
2019-05-07T02:01:43.147Z,83.58
2019-05-07T02:04:14.267Z,83.61
2019-05-07T02:07:02.823Z,83.59
2019-05-07T02:09:42.334Z,83.57
2019-05-07T02:12:15.791Z,83.53
2019-05-07T02:14:45.295Z,83.54
2019-05-07T02:17:15.153Z,83.52
2019-05-07T02:19:44.650Z,83.29
2019-05-07T02:22:14.164Z,82.99
2019-05-07T02:24:43.612Z,83.16
2019-05-07T02:27:13.112Z,83.25
2019-05-07T02:29:43.093Z,83.20
2019-05-07T02:32:13.442Z,83.30
2019-05-07T02:34:44.210Z,83.41
2019-05-07T02:37:15.740Z,83.39
2019-05-07T02:39:49.856Z,83.38
2019-05-07T02:42:19.349Z,83.30
2019-05-07T02:44:59.763Z,83.28
2019-05-07T02:47:33.071Z,83.22
2019-05-07T02:50:04.242Z,83.19
2019-05-07T02:52:53.364Z,83.32
2019-05-07T02:55:23.511Z,83.44
2019-05-07T02:57:54.211Z,83.49
2019-05-07T03:00:24.518Z,83.64
2019-05-07T03:02:54.098Z,83.87
2019-05-07T03:05:23.588Z,83.97
2019-05-07T03:07:53.728Z,84.00
2019-05-07T03:10:24.220Z,83.98
2019-05-07T03:12:54.010Z,83.98
2019-05-07T03:15:24.295Z,83.86
2019-05-07T03:17:54.090Z,83.84
2019-05-07T03:20:43.040Z,83.75
2019-05-07T03:23:14.326Z,83.58
2019-05-07T03:25:54.124Z,83.68
2019-05-07T03:28:24.458Z,83.72
2019-05-07T03:30:57.152Z,83.59
2019-05-07T03:33:29.755Z,83.61
2019-05-07T03:36:06.298Z,83.66
2019-05-07T03:38:33.509Z,83.65
2019-05-07T03:41:04.224Z,83.76
2019-05-07T03:43:34.124Z,83.88
2019-05-07T03:46:05.434Z,83.99
2019-05-07T03:48:36.932Z,84.12
2019-05-07T03:51:06.505Z,84.14
2019-05-07T03:53:35.993Z,84.23
2019-05-07T03:56:05.522Z,84.47
2019-05-07T03:58:35.017Z,84.61
2019-05-07T04:01:04.816Z,84.70
2019-05-07T04:03:34.711Z,84.75
2019-05-07T04:06:04.533Z,84.82
2019-05-07T04:08:34.053Z,84.92
2019-05-07T04:11:04.099Z,84.92
2019-05-07T04:13:34.061Z,84.92
2019-05-07T04:16:04.276Z,85.05
2019-05-07T04:18:34.261Z,84.97
2019-05-07T04:21:04.196Z,84.97
2019-05-07T04:23:34.543Z,85.07
2019-05-07T04:26:05.870Z,84.96
2019-05-07T04:28:54.228Z,84.94
2019-05-07T04:31:25.548Z,84.90
2019-05-07T04:33:57.689Z,84.92
2019-05-07T04:36:28.963Z,84.95
2019-05-07T04:38:58.422Z,84.95
2019-05-07T04:41:28.306Z,84.95
2019-05-07T04:43:58.425Z,84.91
2019-05-07T04:46:27.929Z,84.96
2019-05-07T04:48:59.615Z,84.90
2019-05-07T04:51:33.753Z,84.97
2019-05-07T04:54:03.800Z,84.96
2019-05-07T04:56:33.827Z,85.03
2019-05-07T04:59:03.953Z,85.06
2019-05-07T05:01:35.063Z,85.00
2019-05-07T05:04:20.708Z,84.96
2019-05-07T05:06:36.066Z,84.88
2019-05-07T05:09:06.939Z,84.74
2019-05-07T05:11:36.447Z,84.61
2019-05-07T05:14:07.894Z,84.58
2019-05-07T05:16:37.159Z,84.59
2019-05-07T05:19:06.626Z,84.37
2019-05-07T05:21:49.938Z,84.35
2019-05-07T05:24:24.051Z,84.31
2019-05-07T05:26:53.512Z,84.22
2019-05-07T05:29:23.035Z,84.10
2019-05-07T05:31:52.938Z,84.04
2019-05-07T05:34:22.584Z,83.76
2019-05-07T05:36:53.204Z,83.56
2019-05-07T05:39:23.207Z,83.30
2019-05-07T05:41:54.303Z,83.14
2019-05-07T05:44:28.375Z,82.70
2019-05-07T05:46:57.882Z,82.37
2019-05-07T05:49:27.333Z,82.45
2019-05-07T05:51:58.531Z,82.58
2019-05-07T05:54:32.426Z,82.43
2019-05-07T05:57:09.701Z,82.31
2019-05-07T05:59:56.672Z,82.17
2019-05-07T06:02:43.996Z,81.92
2019-05-07T06:05:22.153Z,81.77
2019-05-07T06:07:53.741Z,81.72
2019-05-07T06:10:42.452Z,81.40
2019-05-07T06:13:13.628Z,81.19
2019-05-07T06:15:53.749Z,80.94
2019-05-07T06:18:41.878Z,80.47
2019-05-07T06:21:25.227Z,80.41
2019-05-07T06:23:59.319Z,79.34
2019-05-07T06:26:28.949Z,79.13
2019-05-07T06:28:58.785Z,79.17
2019-05-07T06:31:28.368Z,78.93
2019-05-07T06:33:57.949Z,78.73
2019-05-07T06:36:28.112Z,78.16
2019-05-07T06:39:01.824Z,76.71
2019-05-07T06:41:52.557Z,76.48
2019-05-07T06:44:23.058Z,76.33
2019-05-07T06:46:52.843Z,76.33
2019-05-07T06:49:22.456Z,75.54
2019-05-07T06:51:52.937Z,74.87
2019-05-07T06:54:23.386Z,74.88
2019-05-07T06:56:52.888Z,74.76
2019-05-07T06:59:27.148Z,73.46
2019-05-07T07:02:02.355Z,72.12
2019-05-07T07:04:35.632Z,72.15
2019-05-07T07:07:26.326Z,72.18
2019-05-07T07:09:48.120Z,71.87
2019-05-07T07:12:25.548Z,71.22
2019-05-07T07:14:53.714Z,69.39
2019-05-07T07:17:23.201Z,69.64
2019-05-07T07:19:53.224Z,69.33
2019-05-07T07:22:23.079Z,69.72
2019-05-07T07:24:53.118Z,67.65
2019-05-07T07:27:22.896Z,66.40
2019-05-07T07:30:04.455Z,66.01
2019-05-07T07:32:35.646Z,65.61
2019-05-07T07:35:08.875Z,65.45
2019-05-07T07:37:42.997Z,65.77
2019-05-07T07:42:56.468Z,65.22
2019-05-07T07:45:26.033Z,63.89
2019-05-07T07:47:55.562Z,63.17
2019-05-07T07:50:25.071Z,61.51
2019-05-07T07:52:54.662Z,61.23
2019-05-07T07:55:25.791Z,61.01
2019-05-07T07:58:11.941Z,60.88
2019-05-07T08:00:43.095Z,62.15
2019-05-07T08:03:14.317Z,61.95
2019-05-07T08:05:43.869Z,61.67
2019-05-07T08:08:13.683Z,61.10
2019-05-07T08:10:43.503Z,60.81
2019-05-07T08:13:12.951Z,58.84
2019-05-07T08:15:43.039Z,59.22
2019-05-07T08:18:12.867Z,59.23
2019-05-07T08:20:43.097Z,58.57
2019-05-07T08:23:12.718Z,58.29
2019-05-07T08:25:48.408Z,57.88
2019-05-07T08:28:23.132Z,55.07
2019-05-07T08:31:02.981Z,55.84
2019-05-07T08:33:34.128Z,54.30
2019-05-07T08:36:05.669Z,55.23
2019-05-07T08:38:36.865Z,54.90
2019-05-07T08:41:06.427Z,55.09
2019-05-07T08:43:35.933Z,54.24
2019-05-07T08:46:23.562Z,54.44
2019-05-07T08:48:54.419Z,54.42
2019-05-07T08:51:23.982Z,54.59
2019-05-07T08:54:05.691Z,53.75
2019-05-07T08:56:36.293Z,53.88
2019-05-07T08:59:08.331Z,54.37
2019-05-07T09:01:39.947Z,54.34
2019-05-07T09:04:10.000Z,53.94
2019-05-07T09:06:39.557Z,54.61
2019-05-07T09:09:13.492Z,53.57
2019-05-07T09:11:43.306Z,50.56
2019-05-07T09:14:14.151Z,50.39
2019-05-07T09:16:43.675Z,49.28
2019-05-07T09:19:14.180Z,49.46
2019-05-07T09:21:43.701Z,49.79
2019-05-07T09:24:14.669Z,49.22
2019-05-07T09:26:45.835Z,49.21
2019-05-07T09:29:17.526Z,47.96
2019-05-07T09:31:48.686Z,50.06
2019-05-07T09:34:26.022Z,49.07
2019-05-07T09:37:02.250Z,49.51
2019-05-07T09:39:32.418Z,49.89
2019-05-07T09:42:02.473Z,50.59
2019-05-07T09:44:32.512Z,51.22
2019-05-07T09:47:02.670Z,51.69
2019-05-07T09:49:32.668Z,51.34
2019-05-07T09:52:04.323Z,51.17
2019-05-07T09:54:33.472Z,50.92
2019-05-07T09:57:03.188Z,49.15
2019-05-07T09:59:33.016Z,46.94
2019-05-07T10:02:02.672Z,47.84
2019-05-07T10:04:32.758Z,48.42
2019-05-07T10:07:02.734Z,47.78
2019-05-07T10:09:32.943Z,46.74
2019-05-07T10:12:16.478Z,46.62
2019-05-07T10:14:46.143Z,47.37
2019-05-07T10:17:26.162Z,47.42
2019-05-07T10:19:55.716Z,47.45
2019-05-07T10:22:25.303Z,47.83
2019-05-07T10:24:54.888Z,46.38
2019-05-07T10:27:24.454Z,45.05
2019-05-07T10:29:54.325Z,46.27
2019-05-07T10:32:24.133Z,45.81
2019-05-07T10:34:55.170Z,45.04
2019-05-07T10:37:27.387Z,44.62
2019-05-07T10:39:56.029Z,44.26
2019-05-07T10:42:25.535Z,44.52
2019-05-07T10:45:03.336Z,44.28
2019-05-07T10:47:52.024Z,46.03
2019-05-07T10:50:35.476Z,45.70
2019-05-07T10:52:54.309Z,45.96
2019-05-07T10:55:23.845Z,46.55
2019-05-07T10:57:53.416Z,46.74
2019-05-07T11:00:25.473Z,46.13
2019-05-07T11:02:55.002Z,47.10
2019-05-07T11:05:24.516Z,47.04
2019-05-07T11:07:54.142Z,45.19
2019-05-07T11:10:23.797Z,44.75
2019-05-07T11:12:53.351Z,44.51
2019-05-07T11:15:22.977Z,44.66
2019-05-07T11:17:56.520Z,44.35
2019-05-07T11:20:26.098Z,44.00
2019-05-07T11:22:55.692Z,44.23
2019-05-07T11:25:25.571Z,43.89
2019-05-07T11:27:55.066Z,43.83
2019-05-07T11:30:24.552Z,43.17
2019-05-07T11:32:53.992Z,43.10
2019-05-07T11:35:23.541Z,42.57
2019-05-07T11:37:52.979Z,40.44
2019-05-07T11:40:23.087Z,40.61
2019-05-07T11:43:12.897Z,41.58
2019-05-07T11:45:46.201Z,41.54
2019-05-07T11:48:18.084Z,41.90
2019-05-07T11:51:03.815Z,41.78
2019-05-07T11:53:29.948Z,41.86
2019-05-07T11:55:59.401Z,42.50
2019-05-07T11:58:29.303Z,41.40
2019-05-07T12:01:09.466Z,41.86
2019-05-07T12:03:38.925Z,42.34
2019-05-07T12:06:09.449Z,41.13
2019-05-07T12:08:48.132Z,41.25
2019-05-07T12:11:11.923Z,40.67
2019-05-07T12:13:42.767Z,41.31
2019-05-07T12:16:14.222Z,41.25
2019-05-07T12:18:43.802Z,40.93
2019-05-07T12:21:20.254Z,40.70
2019-05-07T12:23:44.590Z,40.54
2019-05-07T12:26:14.436Z,40.65
2019-05-07T12:28:43.992Z,41.40
2019-05-07T12:31:15.073Z,41.32
2019-05-07T12:33:46.272Z,42.05
2019-05-07T12:36:16.095Z,41.43
2019-05-07T12:38:45.607Z,40.84
2019-05-07T12:41:34.153Z,41.00
2019-05-07T12:44:06.675Z,40.93
2019-05-07T12:46:37.284Z,39.09
2019-05-07T12:49:08.066Z,39.60
2019-05-07T12:51:48.205Z,40.12
2019-05-07T12:54:19.507Z,40.15
2019-05-07T12:56:49.177Z,40.54
2019-05-07T12:59:18.742Z,40.79
2019-05-07T13:02:16.688Z,40.01
2019-05-07T13:04:37.803Z,39.91
2019-05-07T13:07:24.129Z,40.70
2019-05-07T13:09:54.232Z,40.20
2019-05-07T13:12:24.103Z,40.13
2019-05-07T13:14:54.967Z,39.65
2019-05-07T13:17:24.433Z,39.29
2019-05-07T13:19:54.250Z,38.70
2019-05-07T13:22:23.707Z,38.80
2019-05-07T13:24:53.232Z,38.55
2019-05-07T13:27:23.238Z,38.60
2019-05-07T13:29:53.400Z,39.03
2019-05-07T13:32:24.234Z,38.54
2019-05-07T13:34:54.266Z,37.44
2019-05-07T13:37:28.556Z,37.98
2019-05-07T13:40:02.558Z,38.84
2019-05-07T13:42:41.911Z,39.00
2019-05-07T13:45:15.975Z,38.13
2019-05-07T13:47:46.069Z,38.42
2019-05-07T13:50:15.980Z,37.86
2019-05-07T13:52:45.496Z,38.38
2019-05-07T13:55:15.121Z,37.73
2019-05-07T13:57:44.713Z,37.79
2019-05-07T14:00:16.868Z,37.24
2019-05-07T14:02:46.469Z,37.44
2019-05-07T14:05:16.107Z,38.15
2019-05-07T14:07:45.948Z,38.42
2019-05-07T14:10:15.685Z,38.75
2019-05-07T14:12:45.272Z,38.75
2019-05-07T14:15:14.995Z,38.23
2019-05-07T14:17:44.815Z,38.25
2019-05-07T14:20:14.852Z,38.70
2019-05-07T14:22:44.677Z,38.88
2019-05-07T14:25:14.606Z,38.71
2019-05-07T14:27:44.226Z,39.89
2019-05-07T14:30:14.538Z,39.48
2019-05-07T14:32:48.926Z,39.84
2019-05-07T14:35:32.367Z,40.07
2019-05-07T14:38:03.708Z,40.09
2019-05-07T14:40:33.272Z,40.70
2019-05-07T14:43:07.423Z,40.15
2019-05-07T14:45:37.406Z,39.94
2019-05-07T14:48:06.902Z,40.12
2019-05-07T14:50:36.743Z,38.35
2019-05-07T14:53:06.306Z,38.79
2019-05-07T14:55:36.278Z,39.01
2019-05-07T14:58:06.146Z,39.27
2019-05-07T15:00:35.946Z,39.65
2019-05-07T15:03:05.536Z,39.69
2019-05-07T15:05:35.128Z,39.67
2019-05-07T15:08:10.461Z,39.11
2019-05-07T15:10:36.097Z,39.43
2019-05-07T15:13:05.577Z,39.35
2019-05-07T15:15:36.231Z,38.73
2019-05-07T15:18:23.921Z,38.90
2019-05-07T15:20:53.943Z,38.25
2019-05-07T15:23:25.727Z,38.08
2019-05-07T15:25:56.147Z,37.94
2019-05-07T15:28:26.249Z,38.12
2019-05-07T15:31:09.736Z,38.80
2019-05-07T15:33:39.326Z,39.21
2019-05-07T15:36:08.830Z,38.53
2019-05-07T15:38:38.313Z,38.77
2019-05-07T15:41:07.875Z,38.81
2019-05-07T15:43:37.707Z,39.26
2019-05-07T15:46:07.373Z,38.80
2019-05-07T15:48:36.914Z,39.02
2019-05-07T15:51:06.481Z,38.55
2019-05-07T15:53:42.608Z,38.96
2019-05-07T15:56:12.444Z,38.85
2019-05-07T15:58:42.677Z,38.76
2019-05-07T16:01:13.426Z,39.18
2019-05-07T16:03:44.635Z,39.05
2019-05-07T16:06:14.187Z,38.02
2019-05-07T16:08:45.354Z,37.96
2019-05-07T16:11:15.200Z,38.22
2019-05-07T16:13:47.518Z,38.63
2019-05-07T16:16:17.062Z,39.15
2019-05-07T16:19:07.054Z,39.23
2019-05-07T16:21:36.531Z,38.74
2019-05-07T16:24:06.090Z,38.29
2019-05-07T16:26:35.729Z,38.06
2019-05-07T16:29:05.178Z,38.49
2019-05-07T16:31:34.738Z,39.03
2019-05-07T16:34:04.260Z,38.58
2019-05-07T16:36:33.763Z,38.90
2019-05-07T16:39:04.112Z,38.32
2019-05-07T16:41:34.779Z,38.43
2019-05-07T16:44:06.479Z,38.45
2019-05-07T16:46:35.941Z,38.48
2019-05-07T16:49:05.391Z,38.38
2019-05-07T16:51:34.892Z,38.13
2019-05-07T16:54:04.695Z,37.68
2019-05-07T16:56:34.213Z,36.37
2019-05-07T16:59:07.546Z,36.61
2019-05-07T17:01:37.358Z,36.28
2019-05-07T17:04:07.181Z,36.83
2019-05-07T17:06:36.720Z,37.53
2019-05-07T17:09:14.471Z,37.69
2019-05-07T17:11:44.007Z,37.88
2019-05-07T17:14:13.529Z,38.14
2019-05-07T17:16:42.975Z,38.27
2019-05-07T17:19:14.052Z,38.04
2019-05-07T17:21:44.599Z,38.56
2019-05-07T17:24:14.202Z,39.41
2019-05-07T17:26:44.138Z,39.42
2019-05-07T17:29:13.615Z,39.22
2019-05-07T17:31:43.154Z,39.86
2019-05-07T17:34:12.659Z,40.10
2019-05-07T17:36:42.419Z,40.41
2019-05-07T17:39:12.310Z,40.80
2019-05-07T17:41:42.908Z,40.99
2019-05-07T17:44:12.692Z,40.80
2019-05-07T17:46:43.187Z,41.09
2019-05-07T17:49:13.701Z,41.26
2019-05-07T17:51:43.824Z,41.26
2019-05-07T17:54:14.629Z,42.04
2019-05-07T17:56:44.276Z,42.75
2019-05-07T17:59:13.908Z,42.71
2019-05-07T18:01:50.111Z,42.30
2019-05-07T18:04:19.362Z,42.56
2019-05-07T18:06:48.873Z,43.04
2019-05-07T18:09:18.490Z,44.51
2019-05-07T18:11:47.970Z,45.67
2019-05-07T18:14:17.502Z,47.21
2019-05-07T18:16:57.998Z,47.93
2019-05-07T18:19:29.096Z,48.32
2019-05-07T18:21:58.593Z,48.17
2019-05-07T18:24:28.191Z,48.39
2019-05-07T18:26:58.744Z,48.72
2019-05-07T18:29:28.227Z,49.04
2019-05-07T18:32:00.523Z,49.47
2019-05-07T18:34:32.085Z,50.05
2019-05-07T18:37:02.146Z,50.83
2019-05-07T18:39:32.414Z,52.31
2019-05-07T18:42:02.820Z,52.90
2019-05-07T18:44:32.460Z,53.80
2019-05-07T18:47:02.474Z,53.73
2019-05-07T18:49:32.268Z,53.95
2019-05-07T18:52:02.912Z,54.43
2019-05-07T18:54:34.349Z,54.54
2019-05-07T18:57:03.863Z,54.88
2019-05-07T18:59:35.095Z,54.69
2019-05-07T19:02:05.214Z,55.00
2019-05-07T19:04:35.326Z,55.12
2019-05-07T19:07:04.838Z,55.18
2019-05-07T19:09:34.506Z,55.30
2019-05-07T19:12:05.061Z,55.29
2019-05-07T19:14:34.614Z,55.08
2019-05-07T19:17:04.504Z,54.70
2019-05-07T19:19:34.074Z,55.17
2019-05-07T19:22:03.576Z,55.06
2019-05-07T19:24:44.326Z,54.99
2019-05-07T19:27:04.761Z,55.19
2019-05-07T19:29:34.547Z,55.29
2019-05-07T19:32:06.026Z,55.38
2019-05-07T19:34:35.563Z,55.32
2019-05-07T19:37:06.097Z,55.88
2019-05-07T19:39:35.599Z,56.01
2019-05-07T19:42:05.315Z,56.28
2019-05-07T19:44:35.204Z,56.63
2019-05-07T19:47:05.739Z,56.79
2019-05-07T19:49:35.201Z,57.04
2019-05-07T19:52:05.381Z,57.48
2019-05-07T19:54:35.184Z,57.58
2019-05-07T19:57:04.912Z,57.85
2019-05-07T19:59:34.707Z,58.11
2019-05-07T20:02:07.580Z,58.32
2019-05-07T20:04:37.041Z,58.73
2019-05-07T20:07:07.009Z,58.97
2019-05-07T20:09:38.104Z,59.19
2019-05-07T20:12:08.107Z,59.30
2019-05-07T20:14:37.848Z,59.46
2019-05-07T20:17:07.462Z,59.68
2019-05-07T20:19:36.957Z,59.95
2019-05-07T20:22:06.939Z,60.19
2019-05-07T20:24:36.366Z,60.55
2019-05-07T20:27:06.022Z,60.77
2019-05-07T20:29:35.571Z,60.60
2019-05-07T20:32:05.116Z,60.61
2019-05-07T20:34:34.700Z,60.72
2019-05-07T20:37:04.664Z,60.73
2019-05-07T20:39:34.176Z,60.69
2019-05-07T20:42:04.091Z,60.66
2019-05-07T20:44:33.891Z,60.70
2019-05-07T20:47:03.480Z,60.70
2019-05-07T20:49:33.028Z,60.80
2019-05-07T20:52:03.042Z,61.14
2019-05-07T20:54:43.228Z,61.07
2019-05-07T20:57:22.304Z,61.20
2019-05-07T20:59:51.712Z,61.12
2019-05-07T21:02:22.742Z,61.16
2019-05-07T21:04:52.923Z,61.34
2019-05-07T21:07:22.549Z,61.59
2019-05-07T21:09:53.003Z,61.74
2019-05-07T21:12:22.799Z,61.86
2019-05-07T21:14:52.671Z,62.03
2019-05-07T21:17:22.762Z,62.13
2019-05-07T21:19:52.318Z,62.22
2019-05-07T21:22:22.799Z,62.34
2019-05-07T21:24:53.211Z,62.52
2019-05-07T21:27:23.264Z,62.60
2019-05-07T21:29:54.103Z,62.64
2019-05-07T21:32:23.668Z,62.94
2019-05-07T21:34:53.115Z,63.15
2019-05-07T21:37:23.336Z,63.27
2019-05-07T21:39:53.250Z,63.49
2019-05-07T21:42:23.099Z,63.71
2019-05-07T21:44:52.894Z,63.87
2019-05-07T21:47:22.396Z,63.97
2019-05-07T21:49:54.898Z,64.07
2019-05-07T21:52:24.967Z,64.31
2019-05-07T21:54:56.356Z,64.44
2019-05-07T21:57:45.629Z,64.58
2019-05-07T22:00:21.965Z,64.71
2019-05-07T22:02:52.811Z,64.83
2019-05-07T22:05:22.730Z,64.95
2019-05-07T22:07:54.435Z,64.98
2019-05-07T22:10:24.044Z,65.11
2019-05-07T22:12:54.639Z,65.23
2019-05-07T22:15:24.233Z,65.33
2019-05-07T22:17:54.052Z,65.44
2019-05-07T22:20:23.877Z,65.62
2019-05-07T22:22:53.366Z,65.69
2019-05-07T22:25:22.921Z,65.87
2019-05-07T22:27:54.391Z,65.96
2019-05-07T22:30:34.734Z,66.09
2019-05-07T22:33:05.936Z,66.22
2019-05-07T22:35:37.104Z,66.37
2019-05-07T22:38:25.122Z,66.56
2019-05-07T22:40:55.955Z,66.46
2019-05-07T22:43:26.521Z,66.60
2019-05-07T22:45:56.112Z,66.72
2019-05-07T22:48:25.960Z,66.94
2019-05-07T22:50:55.398Z,67.00
2019-05-07T22:53:24.871Z,67.23
2019-05-07T22:55:57.229Z,67.40
2019-05-07T22:58:28.365Z,67.38
2019-05-07T23:01:02.571Z,67.55
2019-05-07T23:03:32.344Z,67.63
2019-05-07T23:06:08.003Z,67.67
2019-05-07T23:08:38.766Z,67.72
2019-05-07T23:11:08.371Z,67.81
2019-05-07T23:13:38.056Z,67.94
2019-05-07T23:16:07.623Z,68.07
2019-05-07T23:18:37.068Z,68.12
2019-05-07T23:21:06.563Z,68.26
2019-05-07T23:23:36.030Z,68.38
2019-05-07T23:26:05.838Z,68.44
2019-05-07T23:28:35.350Z,68.60
2019-05-07T23:31:04.813Z,68.71
2019-05-07T23:33:34.332Z,68.76
2019-05-07T23:36:04.252Z,68.93
2019-05-07T23:38:33.774Z,69.02
2019-05-07T23:41:22.323Z,69.15
2019-05-07T23:44:12.625Z,69.31
2019-05-07T23:46:44.894Z,69.32
2019-05-07T23:49:13.603Z,69.36
2019-05-07T23:51:43.133Z,69.50
2019-05-07T23:54:12.567Z,69.63
2019-05-07T23:56:43.003Z,69.70
2019-05-07T23:59:14.925Z,69.84
